sensor_id;sensor_type;location;lat;lon;timestamp;pressure;altitude;pressure_sealevel;temperature;humidity
11830;BME280;5972;42.134;24.718;2022-12-19T00:00:04;101590.38;;;5.66;100.00
11830;BME280;5972;42.134;24.718;2022-12-19T00:02:34;101594.66;;;5.67;100.00
11830;BME280;5972;42.134;24.718;2022-12-19T00:05:01;101594.91;;;5.65;100.00
11830;BME280;5972;42.134;24.718;2022-12-19T00:07:29;101610.28;;;5.75;100.00
11830;BME280;5972;42.134;24.718;2022-12-19T00:09:56;101610.84;;;5.77;100.00
11830;BME280;5972;42.134;24.718;2022-12-19T00:12:23;101616.19;;;5.72;100.00
11830;BME280;5972;42.134;24.718;2022-12-19T00:14:50;101615.66;;;5.75;100.00
11830;BME280;5972;42.134;24.718;2022-12-19T00:17:17;101635.47;;;5.64;100.00
11830;BME280;5972;42.134;24.718;2022-12-19T00:19:43;101646.19;;;5.64;100.00
11830;BME280;5972;42.134;24.718;2022-12-19T00:22:10;101637.06;;;5.60;100.00
11830;BME280;5972;42.134;24.718;2022-12-19T00:24:38;101634.16;;;5.66;100.00
11830;BME280;5972;42.134;24.718;2022-12-19T00:27:05;101638.13;;;5.64;100.00
11830;BME280;5972;42.134;24.718;2022-12-19T00:29:32;101642.44;;;5.65;100.00
11830;BME280;5972;42.134;24.718;2022-12-19T00:31:59;101637.66;;;5.72;100.00
11830;BME280;5972;42.134;24.718;2022-12-19T00:34:25;101637.66;;;5.72;100.00
11830;BME280;5972;42.134;24.718;2022-12-19T00:36:52;101634.72;;;5.73;100.00
11830;BME280;5972;42.134;24.718;2022-12-19T00:39:19;101648.44;;;5.77;100.00
11830;BME280;5972;42.134;24.718;2022-12-19T00:41:47;101649.00;;;5.79;100.00
11830;BME280;5972;42.134;24.718;2022-12-19T00:44:17;101648.75;;;5.85;100.00
11830;BME280;5972;42.134;24.718;2022-12-19T00:46:43;101647.75;;;5.92;100.00
11830;BME280;5972;42.134;24.718;2022-12-19T00:49:11;101641.28;;;5.88;100.00
11830;BME280;5972;42.134;24.718;2022-12-19T00:51:38;101644.78;;;5.88;100.00
11830;BME280;5972;42.134;24.718;2022-12-19T00:54:05;101650.16;;;5.88;100.00
11830;BME280;5972;42.134;24.718;2022-12-19T00:56:33;101652.84;;;5.88;100.00
11830;BME280;5972;42.134;24.718;2022-12-19T00:59:02;101653.91;;;5.87;100.00
11830;BME280;5972;42.134;24.718;2022-12-19T01:01:30;101647.97;;;5.85;100.00
11830;BME280;5972;42.134;24.718;2022-12-19T01:03:59;101642.81;;;5.78;100.00
11830;BME280;5972;42.134;24.718;2022-12-19T01:06:26;101647.22;;;5.90;100.00
11830;BME280;5972;42.134;24.718;2022-12-19T01:08:53;101658.22;;;5.88;100.00
11830;BME280;5972;42.134;24.718;2022-12-19T01:11:20;101656.63;;;5.92;100.00
11830;BME280;5972;42.134;24.718;2022-12-19T01:14:09;101658.25;;;5.93;100.00
11830;BME280;5972;42.134;24.718;2022-12-19T01:16:35;101652.59;;;5.95;100.00
11830;BME280;5972;42.134;24.718;2022-12-19T01:19:02;101651.25;;;5.92;100.00
11830;BME280;5972;42.134;24.718;2022-12-19T01:21:29;101648.53;;;5.87;100.00
11830;BME280;5972;42.134;24.718;2022-12-19T01:23:56;101646.06;;;5.85;100.00
11830;BME280;5972;42.134;24.718;2022-12-19T01:26:23;101642.03;;;5.83;100.00
11830;BME280;5972;42.134;24.718;2022-12-19T01:28:49;101645.00;;;5.86;100.00
11830;BME280;5972;42.134;24.718;2022-12-19T01:31:18;101653.06;;;5.86;100.00
11830;BME280;5972;42.134;24.718;2022-12-19T01:33:44;101639.09;;;5.84;100.00
11830;BME280;5972;42.134;24.718;2022-12-19T01:36:11;101641.78;;;5.84;100.00
11830;BME280;5972;42.134;24.718;2022-12-19T01:38:38;101649.09;;;5.89;100.00
11830;BME280;5972;42.134;24.718;2022-12-19T01:41:05;101651.53;;;5.96;100.00
11830;BME280;5972;42.134;24.718;2022-12-19T01:46:25;101665.25;;;5.94;100.00
11830;BME280;5972;42.134;24.718;2022-12-19T01:48:52;101657.69;;;5.91;100.00
11830;BME280;5972;42.134;24.718;2022-12-19T01:51:22;101644.97;;;5.81;100.00
11830;BME280;5972;42.134;24.718;2022-12-19T01:53:52;101659.31;;;5.92;100.00
11830;BME280;5972;42.134;24.718;2022-12-19T01:56:23;101654.38;;;5.79;100.00
11830;BME280;5972;42.134;24.718;2022-12-19T01:58:53;101662.44;;;5.79;100.00
11830;BME280;5972;42.134;24.718;2022-12-19T02:01:21;101657.81;;;5.74;100.00
11830;BME280;5972;42.134;24.718;2022-12-19T02:03:49;101657.31;;;5.77;100.00
11830;BME280;5972;42.134;24.718;2022-12-19T02:06:18;101654.13;;;5.85;100.00
11830;BME280;5972;42.134;24.718;2022-12-19T02:08:46;101663.88;;;5.92;100.00
11830;BME280;5972;42.134;24.718;2022-12-19T02:11:13;101658.25;;;5.93;100.00
11830;BME280;5972;42.134;24.718;2022-12-19T02:13:41;101659.03;;;5.94;100.00
11830;BME280;5972;42.134;24.718;2022-12-19T02:16:15;101666.28;;;5.93;100.00
11830;BME280;5972;42.134;24.718;2022-12-19T02:18:47;101668.72;;;5.95;100.00
11830;BME280;5972;42.134;24.718;2022-12-19T02:21:31;101658.72;;;5.85;100.00
11830;BME280;5972;42.134;24.718;2022-12-19T02:27:22;101674.25;;;5.78;100.00
11830;BME280;5972;42.134;24.718;2022-12-19T02:30:09;101677.69;;;5.68;100.00
11830;BME280;5972;42.134;24.718;2022-12-19T02:32:47;101687.63;;;5.68;100.00
11830;BME280;5972;42.134;24.718;2022-12-19T02:35:27;101684.91;;;5.63;100.00
11830;BME280;5972;42.134;24.718;2022-12-19T02:38:05;101693.44;;;5.60;100.00
11830;BME280;5972;42.134;24.718;2022-12-19T02:40:39;101690.19;;;5.58;100.00
11830;BME280;5972;42.134;24.718;2022-12-19T02:43:08;101685.91;;;5.57;100.00
11830;BME280;5972;42.134;24.718;2022-12-19T02:45:38;101684.50;;;5.49;100.00
11830;BME280;5972;42.134;24.718;2022-12-19T02:48:08;101686.88;;;5.40;100.00
11830;BME280;5972;42.134;24.718;2022-12-19T02:50:37;101693.75;;;5.31;100.00
11830;BME280;5972;42.134;24.718;2022-12-19T02:53:04;101700.50;;;5.34;100.00
11830;BME280;5972;42.134;24.718;2022-12-19T02:55:38;101694.81;;;5.30;100.00
11830;BME280;5972;42.134;24.718;2022-12-19T02:58:26;101696.66;;;5.25;100.00
11830;BME280;5972;42.134;24.718;2022-12-19T03:01:07;101700.09;;;5.20;100.00
11830;BME280;5972;42.134;24.718;2022-12-19T03:03:46;101697.94;;;5.17;100.00
11830;BME280;5972;42.134;24.718;2022-12-19T03:06:23;101714.28;;;5.16;100.00
11830;BME280;5972;42.134;24.718;2022-12-19T03:08:57;101717.47;;;5.13;100.00
11830;BME280;5972;42.134;24.718;2022-12-19T03:11:30;101722.72;;;5.02;100.00
11830;BME280;5972;42.134;24.718;2022-12-19T03:14:01;101726.19;;;4.98;100.00
11830;BME280;5972;42.134;24.718;2022-12-19T03:16:29;101710.09;;;4.98;100.00
11830;BME280;5972;42.134;24.718;2022-12-19T03:18:58;101719.84;;;4.82;100.00
11830;BME280;5972;42.134;24.718;2022-12-19T03:21:28;101738.63;;;4.82;100.00
11830;BME280;5972;42.134;24.718;2022-12-19T03:23:57;101728.16;;;4.59;100.00
11830;BME280;5972;42.134;24.718;2022-12-19T03:26:30;101726.59;;;4.63;100.00
11830;BME280;5972;42.134;24.718;2022-12-19T03:29:00;101734.56;;;4.58;100.00
11830;BME280;5972;42.134;24.718;2022-12-19T03:31:31;101729.22;;;4.58;100.00
11830;BME280;5972;42.134;24.718;2022-12-19T03:34:04;101731.00;;;4.52;100.00
11830;BME280;5972;42.134;24.718;2022-12-19T03:36:36;101742.38;;;4.59;100.00
11830;BME280;5972;42.134;24.718;2022-12-19T03:39:06;101735.31;;;4.53;100.00
11830;BME280;5972;42.134;24.718;2022-12-19T03:41:35;101753.72;;;4.45;100.00
11830;BME280;5972;42.134;24.718;2022-12-19T03:44:21;101742.72;;;4.46;100.00
11830;BME280;5972;42.134;24.718;2022-12-19T03:46:53;101753.97;;;4.43;100.00
11830;BME280;5972;42.134;24.718;2022-12-19T03:49:24;101763.63;;;4.44;100.00
11830;BME280;5972;42.134;24.718;2022-12-19T03:51:54;101766.38;;;4.49;100.00
11830;BME280;5972;42.134;24.718;2022-12-19T03:54:26;101766.38;;;4.49;100.00
11830;BME280;5972;42.134;24.718;2022-12-19T03:56:59;101764.84;;;4.37;100.00
11830;BME280;5972;42.134;24.718;2022-12-19T03:59:32;101765.84;;;4.31;100.00
11830;BME280;5972;42.134;24.718;2022-12-19T04:02:00;101758.56;;;4.26;100.00
11830;BME280;5972;42.134;24.718;2022-12-19T04:04:29;101739.00;;;4.09;100.00
11830;BME280;5972;42.134;24.718;2022-12-19T04:07:00;101775.59;;;4.37;100.00
11830;BME280;5972;42.134;24.718;2022-12-19T04:09:28;101775.75;;;4.30;100.00
11830;BME280;5972;42.134;24.718;2022-12-19T04:12:04;101770.97;;;4.32;100.00
11830;BME280;5972;42.134;24.718;2022-12-19T04:14:34;101763.50;;;4.34;100.00
11830;BME280;5972;42.134;24.718;2022-12-19T04:17:07;101767.97;;;4.29;100.00
11830;BME280;5972;42.134;24.718;2022-12-19T04:19:42;101747.84;;;4.26;100.00
11830;BME280;5972;42.134;24.718;2022-12-19T04:22:13;101764.63;;;4.38;100.00
11830;BME280;5972;42.134;24.718;2022-12-19T04:24:43;101768.88;;;4.34;100.00
11830;BME280;5972;42.134;24.718;2022-12-19T04:27:12;101766.50;;;4.38;100.00
11830;BME280;5972;42.134;24.718;2022-12-19T04:29:40;101771.84;;;4.38;100.00
11830;BME280;5972;42.134;24.718;2022-12-19T04:32:08;101771.69;;;4.44;100.00
11830;BME280;5972;42.134;24.718;2022-12-19T04:34:36;101771.34;;;4.41;100.00
11830;BME280;5972;42.134;24.718;2022-12-19T04:37:04;101773.91;;;4.52;100.00
11830;BME280;5972;42.134;24.718;2022-12-19T04:39:31;101772.38;;;4.56;100.00
11830;BME280;5972;42.134;24.718;2022-12-19T04:41:58;101771.88;;;4.59;100.00
11830;BME280;5972;42.134;24.718;2022-12-19T04:44:25;101781.03;;;4.64;100.00
11830;BME280;5972;42.134;24.718;2022-12-19T04:46:52;101773.72;;;4.59;100.00
11830;BME280;5972;42.134;24.718;2022-12-19T04:49:18;101775.94;;;4.62;100.00
11830;BME280;5972;42.134;24.718;2022-12-19T04:51:45;101780.59;;;4.72;100.00
11830;BME280;5972;42.134;24.718;2022-12-19T04:54:13;101790.06;;;4.79;100.00
11830;BME280;5972;42.134;24.718;2022-12-19T04:56:40;101790.94;;;4.63;100.00
11830;BME280;5972;42.134;24.718;2022-12-19T04:59:07;101785.41;;;4.70;100.00
11830;BME280;5972;42.134;24.718;2022-12-19T05:01:34;101781.47;;;4.77;100.00
11830;BME280;5972;42.134;24.718;2022-12-19T05:04:01;101782.91;;;4.85;100.00
11830;BME280;5972;42.134;24.718;2022-12-19T05:06:28;101788.53;;;4.83;100.00
11830;BME280;5972;42.134;24.718;2022-12-19T05:08:54;101795.56;;;4.89;100.00
11830;BME280;5972;42.134;24.718;2022-12-19T05:11:23;101806.31;;;4.89;100.00
11830;BME280;5972;42.134;24.718;2022-12-19T05:13:49;101804.94;;;4.87;100.00
11830;BME280;5972;42.134;24.718;2022-12-19T05:16:16;101808.66;;;4.86;100.00
11830;BME280;5972;42.134;24.718;2022-12-19T05:18:43;101811.28;;;4.81;100.00
11830;BME280;5972;42.134;24.718;2022-12-19T05:21:11;101811.09;;;4.87;100.00
11830;BME280;5972;42.134;24.718;2022-12-19T05:23:38;101824.50;;;4.87;100.00
11830;BME280;5972;42.134;24.718;2022-12-19T05:26:05;101827.25;;;4.92;100.00
11830;BME280;5972;42.134;24.718;2022-12-19T05:28:33;101806.72;;;4.81;100.00
11830;BME280;5972;42.134;24.718;2022-12-19T05:31:05;101832.94;;;4.96;100.00
11830;BME280;5972;42.134;24.718;2022-12-19T05:33:33;101831.38;;;5.00;100.00
11830;BME280;5972;42.134;24.718;2022-12-19T05:36:00;101834.31;;;4.98;100.00
11830;BME280;5972;42.134;24.718;2022-12-19T05:38:27;101836.31;;;5.08;100.00
11830;BME280;5972;42.134;24.718;2022-12-19T05:44:03;101832.19;;;5.00;100.00
11830;BME280;5972;42.134;24.718;2022-12-19T05:46:30;101829.63;;;5.11;100.00
11830;BME280;5972;42.134;24.718;2022-12-19T05:48:57;101830.16;;;5.13;100.00
11830;BME280;5972;42.134;24.718;2022-12-19T05:51:24;101839.13;;;5.18;100.00
11830;BME280;5972;42.134;24.718;2022-12-19T05:53:51;101839.72;;;5.25;100.00
11830;BME280;5972;42.134;24.718;2022-12-19T05:56:20;101850.28;;;5.32;100.00
11830;BME280;5972;42.134;24.718;2022-12-19T05:58:48;101840.72;;;5.19;100.00
11830;BME280;5972;42.134;24.718;2022-12-19T06:01:18;101849.41;;;5.26;100.00
11830;BME280;5972;42.134;24.718;2022-12-19T06:03:45;101851.22;;;5.21;100.00
11830;BME280;5972;42.134;24.718;2022-12-19T06:06:14;101849.16;;;5.28;100.00
11830;BME280;5972;42.134;24.718;2022-12-19T06:08:41;101833.06;;;5.06;100.00
11830;BME280;5972;42.134;24.718;2022-12-19T06:11:09;101862.59;;;5.28;100.00
11830;BME280;5972;42.134;24.718;2022-12-19T06:13:36;101861.25;;;5.30;100.00
11830;BME280;5972;42.134;24.718;2022-12-19T06:16:05;101858.50;;;5.25;100.00
11830;BME280;5972;42.134;24.718;2022-12-19T06:18:33;101871.31;;;5.40;100.00
11830;BME280;5972;42.134;24.718;2022-12-19T06:21:03;101877.22;;;5.42;100.00
11830;BME280;5972;42.134;24.718;2022-12-19T06:23:32;101881.34;;;5.50;100.00
11830;BME280;5972;42.134;24.718;2022-12-19T06:26:00;101861.56;;;5.34;100.00
11830;BME280;5972;42.134;24.718;2022-12-19T06:28:29;101888.53;;;5.44;100.00
11830;BME280;5972;42.134;24.718;2022-12-19T06:30:56;101886.97;;;5.48;100.00
11830;BME280;5972;42.134;24.718;2022-12-19T06:33:23;101880.25;;;5.46;100.00
11830;BME280;5972;42.134;24.718;2022-12-19T06:35:57;101895.41;;;5.57;100.00
11830;BME280;5972;42.134;24.718;2022-12-19T06:38:25;101898.91;;;5.57;100.00
11830;BME280;5972;42.134;24.718;2022-12-19T06:40:51;101896.75;;;5.59;100.00
11830;BME280;5972;42.134;24.718;2022-12-19T06:43:35;101889.69;;;5.53;100.00
11830;BME280;5972;42.134;24.718;2022-12-19T06:46:03;101888.16;;;5.57;100.00
11830;BME280;5972;42.134;24.718;2022-12-19T06:48:30;101907.31;;;5.66;100.00
11830;BME280;5972;42.134;24.718;2022-12-19T06:50:58;101901.41;;;5.69;100.00
11830;BME280;5972;42.134;24.718;2022-12-19T06:53:25;101907.66;;;5.74;100.00
11830;BME280;5972;42.134;24.718;2022-12-19T06:55:54;101912.28;;;5.79;100.00
11830;BME280;5972;42.134;24.718;2022-12-19T06:58:22;101917.66;;;5.79;100.00
11830;BME280;5972;42.134;24.718;2022-12-19T07:00:49;101918.16;;;5.76;100.00
11830;BME280;5972;42.134;24.718;2022-12-19T07:03:18;101915.97;;;5.73;100.00
11830;BME280;5972;42.134;24.718;2022-12-19T07:05:47;101916.22;;;5.71;100.00
11830;BME280;5972;42.134;24.718;2022-12-19T07:08:15;101930.22;;;5.73;100.00
11830;BME280;5972;42.134;24.718;2022-12-19T07:10:42;101917.91;;;5.77;100.00
11830;BME280;5972;42.134;24.718;2022-12-19T07:13:09;101917.94;;;5.82;100.00
11830;BME280;5972;42.134;24.718;2022-12-19T07:15:36;101929.75;;;5.81;100.00
11830;BME280;5972;42.134;24.718;2022-12-19T07:18:04;101930.00;;;5.80;100.00
11830;BME280;5972;42.134;24.718;2022-12-19T07:20:33;101934.19;;;5.93;100.00
11830;BME280;5972;42.134;24.718;2022-12-19T07:23:02;101942.25;;;5.93;100.00
11830;BME280;5972;42.134;24.718;2022-12-19T07:25:31;101944.75;;;5.99;100.00
11830;BME280;5972;42.134;24.718;2022-12-19T07:27:58;101947.53;;;6.09;100.00
11830;BME280;5972;42.134;24.718;2022-12-19T07:30:25;101948.06;;;6.06;100.00
11830;BME280;5972;42.134;24.718;2022-12-19T07:32:52;101951.00;;;6.05;100.00
11830;BME280;5972;42.134;24.718;2022-12-19T07:35:22;101954.44;;;6.00;100.00
11830;BME280;5972;42.134;24.718;2022-12-19T07:37:49;101974.75;;;5.91;100.00
11830;BME280;5972;42.134;24.718;2022-12-19T07:40:17;101969.09;;;5.88;100.00
11830;BME280;5972;42.134;24.718;2022-12-19T07:42:45;101959.06;;;5.83;100.00
11830;BME280;5972;42.134;24.718;2022-12-19T07:45:12;101968.03;;;5.89;100.00
11830;BME280;5972;42.134;24.718;2022-12-19T07:47:38;101963.09;;;5.85;100.00
11830;BME280;5972;42.134;24.718;2022-12-19T07:50:05;101961.50;;;5.84;100.00
11830;BME280;5972;42.134;24.718;2022-12-19T07:52:32;101971.44;;;5.84;100.00
11830;BME280;5972;42.134;24.718;2022-12-19T07:54:59;101960.53;;;5.91;100.00
11830;BME280;5972;42.134;24.718;2022-12-19T07:57:26;101974.22;;;5.89;100.00
11830;BME280;5972;42.134;24.718;2022-12-19T07:59:54;101976.09;;;5.89;100.00
11830;BME280;5972;42.134;24.718;2022-12-19T08:02:21;101986.13;;;5.98;100.00
11830;BME280;5972;42.134;24.718;2022-12-19T08:04:48;101985.88;;;6.00;100.00
11830;BME280;5972;42.134;24.718;2022-12-19T08:07:15;101986.06;;;5.93;100.00
11830;BME280;5972;42.134;24.718;2022-12-19T08:09:42;101994.38;;;5.92;100.00
11830;BME280;5972;42.134;24.718;2022-12-19T08:12:09;102008.97;;;5.96;100.00
11830;BME280;5972;42.134;24.718;2022-12-19T08:14:35;102001.63;;;5.91;100.00
11830;BME280;5972;42.134;24.718;2022-12-19T08:17:04;101995.13;;;5.87;100.00
11830;BME280;5972;42.134;24.718;2022-12-19T08:19:30;102007.81;;;5.92;100.00
11830;BME280;5972;42.134;24.718;2022-12-19T08:21:57;102004.59;;;5.90;100.00
11830;BME280;5972;42.134;24.718;2022-12-19T08:24:24;102002.88;;;5.83;100.00
11830;BME280;5972;42.134;24.718;2022-12-19T08:26:51;101994.47;;;5.80;100.00
11830;BME280;5972;42.134;24.718;2022-12-19T08:29:17;102006.47;;;5.89;100.00
11830;BME280;5972;42.134;24.718;2022-12-19T08:31:44;102004.03;;;5.88;100.00
11830;BME280;5972;42.134;24.718;2022-12-19T08:34:13;102011.13;;;5.99;100.00
11830;BME280;5972;42.134;24.718;2022-12-19T08:36:39;101991.22;;;5.95;100.00
11830;BME280;5972;42.134;24.718;2022-12-19T08:39:06;102009.81;;;6.01;100.00
11830;BME280;5972;42.134;24.718;2022-12-19T08:41:33;102013.81;;;5.99;100.00
11830;BME280;5972;42.134;24.718;2022-12-19T08:44:01;102010.38;;;6.03;100.00
11830;BME280;5972;42.134;24.718;2022-12-19T08:46:28;102015.50;;;6.05;100.00
11830;BME280;5972;42.134;24.718;2022-12-19T08:48:55;102022.44;;;6.01;100.00
11830;BME280;5972;42.134;24.718;2022-12-19T08:51:23;102020.06;;;6.04;100.00
11830;BME280;5972;42.134;24.718;2022-12-19T08:53:50;102021.16;;;6.08;100.00
11830;BME280;5972;42.134;24.718;2022-12-19T08:56:21;102023.13;;;6.13;100.00
11830;BME280;5972;42.134;24.718;2022-12-19T08:58:50;102019.88;;;6.11;100.00
11830;BME280;5972;42.134;24.718;2022-12-19T09:01:19;102010.88;;;6.00;100.00
11830;BME280;5972;42.134;24.718;2022-12-19T09:03:48;102015.69;;;5.98;100.00
11830;BME280;5972;42.134;24.718;2022-12-19T09:06:15;102019.41;;;6.19;100.00
11830;BME280;5972;42.134;24.718;2022-12-19T09:08:44;102009.41;;;6.14;100.00
11830;BME280;5972;42.134;24.718;2022-12-19T09:11:13;101990.63;;;5.93;100.00
11830;BME280;5972;42.134;24.718;2022-12-19T09:13:41;102017.94;;;6.06;100.00
11830;BME280;5972;42.134;24.718;2022-12-19T09:16:10;102012.28;;;6.08;100.00
11830;BME280;5972;42.134;24.718;2022-12-19T09:18:38;102017.41;;;6.09;100.00
11830;BME280;5972;42.134;24.718;2022-12-19T09:21:05;102005.81;;;6.04;100.00
11830;BME280;5972;42.134;24.718;2022-12-19T09:23:32;102008.97;;;5.96;100.00
11830;BME280;5972;42.134;24.718;2022-12-19T09:26:03;102000.50;;;5.87;100.00
11830;BME280;5972;42.134;24.718;2022-12-19T09:28:31;101990.94;;;5.74;100.00
11830;BME280;5972;42.134;24.718;2022-12-19T09:30:59;102008.44;;;5.77;100.00
11830;BME280;5972;42.134;24.718;2022-12-19T09:33:27;102017.66;;;5.64;100.00
11830;BME280;5972;42.134;24.718;2022-12-19T09:35:55;102002.25;;;5.55;100.00
11830;BME280;5972;42.134;24.718;2022-12-19T09:38:23;101998.88;;;5.64;100.00
11830;BME280;5972;42.134;24.718;2022-12-19T09:40:58;101992.31;;;5.77;100.00
11830;BME280;5972;42.134;24.718;2022-12-19T09:43:42;101990.31;;;5.67;100.00
11830;BME280;5972;42.134;24.718;2022-12-19T09:46:16;101993.94;;;5.78;100.00
11830;BME280;5972;42.134;24.718;2022-12-19T09:48:45;101991.69;;;5.70;100.00
11830;BME280;5972;42.134;24.718;2022-12-19T09:51:19;101987.47;;;5.74;100.00
11830;BME280;5972;42.134;24.718;2022-12-19T09:53:57;101978.06;;;5.76;100.00
11830;BME280;5972;42.134;24.718;2022-12-19T09:56:29;101978.94;;;5.82;100.00
11830;BME280;5972;42.134;24.718;2022-12-19T09:59:03;101978.69;;;5.83;100.00
11830;BME280;5972;42.134;24.718;2022-12-19T10:01:36;101978.69;;;5.83;100.00
11830;BME280;5972;42.134;24.718;2022-12-19T10:04:10;101970.72;;;5.89;100.00
11830;BME280;5972;42.134;24.718;2022-12-19T10:06:38;101976.97;;;5.94;100.00
11830;BME280;5972;42.134;24.718;2022-12-19T10:09:11;101975.09;;;5.95;100.00
11830;BME280;5972;42.134;24.718;2022-12-19T10:11:49;101967.56;;;5.97;100.00
11830;BME280;5972;42.134;24.718;2022-12-19T10:14:32;101962.13;;;5.92;100.00
11830;BME280;5972;42.134;24.718;2022-12-19T10:17:06;101968.84;;;5.89;100.00
11830;BME280;5972;42.134;24.718;2022-12-19T10:19:47;101957.69;;;5.80;100.00
11830;BME280;5972;42.134;24.718;2022-12-19T10:22:26;101948.16;;;5.90;100.00
11830;BME280;5972;42.134;24.718;2022-12-19T10:25:14;101949.94;;;6.06;100.00
11830;BME280;5972;42.134;24.718;2022-12-19T10:27:48;101948.34;;;6.10;100.00
11830;BME280;5972;42.134;24.718;2022-12-19T10:30:20;101950.78;;;6.11;100.00
11830;BME280;5972;42.134;24.718;2022-12-19T10:32:57;101926.72;;;5.95;100.00
11830;BME280;5972;42.134;24.718;2022-12-19T10:35:31;101939.59;;;6.24;100.00
11830;BME280;5972;42.134;24.718;2022-12-19T10:38:12;101919.91;;;6.19;100.00
11830;BME280;5972;42.134;24.718;2022-12-19T10:40:44;101931.50;;;6.19;99.87
11830;BME280;5972;42.134;24.718;2022-12-19T10:43:17;101924.16;;;6.10;96.56
11830;BME280;5972;42.134;24.718;2022-12-19T10:45:52;101927.44;;;6.17;98.08
11830;BME280;5972;42.134;24.718;2022-12-19T10:48:21;101919.47;;;5.95;96.98
11830;BME280;5972;42.134;24.718;2022-12-19T10:50:49;101918.66;;;5.95;100.00
11830;BME280;5972;42.134;24.718;2022-12-19T10:53:25;101922.72;;;6.02;100.00
11830;BME280;5972;42.134;24.718;2022-12-19T10:55:52;101920.38;;;6.06;100.00
11830;BME280;5972;42.134;24.718;2022-12-19T10:58:22;101915.09;;;5.89;100.00
11830;BME280;5972;42.134;24.718;2022-12-19T11:01:04;101926.81;;;5.83;100.00
11830;BME280;5972;42.134;24.718;2022-12-19T11:03:32;101907.91;;;5.73;100.00
11830;BME280;5972;42.134;24.718;2022-12-19T11:06:00;101909.91;;;5.82;100.00
11830;BME280;5972;42.134;24.718;2022-12-19T11:08:29;101914.41;;;6.04;100.00
11830;BME280;5972;42.134;24.718;2022-12-19T11:11:10;101887.59;;;5.82;100.00
11830;BME280;5972;42.134;24.718;2022-12-19T11:13:40;101893.16;;;6.02;100.00
11830;BME280;5972;42.134;24.718;2022-12-19T11:16:08;101913.16;;;6.11;100.00
11830;BME280;5972;42.134;24.718;2022-12-19T11:18:37;101919.88;;;6.14;100.00
11830;BME280;5972;42.134;24.718;2022-12-19T11:21:06;101912.78;;;6.03;100.00
11830;BME280;5972;42.134;24.718;2022-12-19T11:23:49;101902.84;;;6.03;100.00
11830;BME280;5972;42.134;24.718;2022-12-19T11:26:29;101909.03;;;6.04;93.32
11830;BME280;5972;42.134;24.718;2022-12-19T11:29:02;101904.44;;;5.99;96.00
11830;BME280;5972;42.134;24.718;2022-12-19T11:31:34;101879.41;;;5.94;98.65
11830;BME280;5972;42.134;24.718;2022-12-19T11:34:03;101901.09;;;6.19;97.38
11830;BME280;5972;42.134;24.718;2022-12-19T11:36:35;101898.69;;;6.17;91.60
11830;BME280;5972;42.134;24.718;2022-12-19T11:39:04;101893.47;;;6.06;81.59
11830;BME280;5972;42.134;24.718;2022-12-19T11:41:40;101902.09;;;6.08;76.05
11830;BME280;5972;42.134;24.718;2022-12-19T11:44:15;101898.81;;;6.01;72.04
11830;BME280;5972;42.134;24.718;2022-12-19T11:46:48;101899.94;;;6.05;73.79
11830;BME280;5972;42.134;24.718;2022-12-19T11:49:24;101887.41;;;5.89;72.42
11830;BME280;5972;42.134;24.718;2022-12-19T11:51:56;101895.81;;;5.97;74.75
11830;BME280;5972;42.134;24.718;2022-12-19T11:54:30;101893.16;;;6.02;79.41
11830;BME280;5972;42.134;24.718;2022-12-19T11:57:00;101894.59;;;6.10;83.29
11830;BME280;5972;42.134;24.718;2022-12-19T11:59:30;101892.38;;;6.02;84.46
11830;BME280;5972;42.134;24.718;2022-12-19T12:02:12;101878.19;;;6.06;87.67
11830;BME280;5972;42.134;24.718;2022-12-19T12:05:02;101888.31;;;5.99;84.46
11830;BME280;5972;42.134;24.718;2022-12-19T12:07:35;101896.91;;;5.96;82.43
11830;BME280;5972;42.134;24.718;2022-12-19T12:10:09;101886.00;;;5.86;85.25
11830;BME280;5972;42.134;24.718;2022-12-19T12:12:48;101888.22;;;5.89;87.31
11830;BME280;5972;42.134;24.718;2022-12-19T12:15:41;101888.66;;;5.81;79.30
11830;BME280;5972;42.134;24.718;2022-12-19T12:18:23;101887.34;;;5.83;73.85
11830;BME280;5972;42.134;24.718;2022-12-19T12:21:01;101891.19;;;5.93;75.04
11830;BME280;5972;42.134;24.718;2022-12-19T12:23:37;101896.09;;;5.96;74.53
11830;BME280;5972;42.134;24.718;2022-12-19T12:26:13;101888.22;;;5.89;73.45
11830;BME280;5972;42.134;24.718;2022-12-19T12:29:02;101901.84;;;5.82;68.44
11830;BME280;5972;42.134;24.718;2022-12-19T12:31:52;101905.03;;;5.79;70.43
11830;BME280;5972;42.134;24.718;2022-12-19T12:34:47;101897.63;;;5.65;68.68
11830;BME280;5972;42.134;24.718;2022-12-19T12:37:23;101902.50;;;5.68;70.06
11830;BME280;5972;42.134;24.718;2022-12-19T12:40:01;101906.91;;;5.79;70.03
11830;BME280;5972;42.134;24.718;2022-12-19T12:42:42;101903.56;;;5.67;66.22
11830;BME280;5972;42.134;24.718;2022-12-19T12:45:18;101904.81;;;5.59;63.27
11830;BME280;5972;42.134;24.718;2022-12-19T12:47:47;101904.50;;;5.56;63.06
11830;BME280;5972;42.134;24.718;2022-12-19T12:50:17;101903.94;;;5.54;63.46
11830;BME280;5972;42.134;24.718;2022-12-19T12:52:48;101910.00;;;5.44;62.63
11830;BME280;5972;42.134;24.718;2022-12-19T12:55:21;101916.38;;;5.38;63.69
11830;BME280;5972;42.134;24.718;2022-12-19T12:57:50;101915.97;;;5.46;63.76
11830;BME280;5972;42.134;24.718;2022-12-19T13:00:25;101911.47;;;5.52;65.43
11830;BME280;5972;42.134;24.718;2022-12-19T13:02:55;101916.75;;;5.47;60.10
11830;BME280;5972;42.134;24.718;2022-12-19T13:05:51;101909.91;;;5.34;58.33
11830;BME280;5972;42.134;24.718;2022-12-19T13:08:35;101917.19;;;5.38;58.26
11830;BME280;5972;42.134;24.718;2022-12-19T13:11:04;101926.25;;;5.32;64.18
11830;BME280;5972;42.134;24.718;2022-12-19T13:13:50;101925.69;;;5.30;65.61
11830;BME280;5972;42.134;24.718;2022-12-19T13:16:50;101926.56;;;5.14;64.75
11830;BME280;5972;42.134;24.718;2022-12-19T13:19:20;101929.41;;;5.08;66.16